Time;durP1;ratioP1;P1;durP2;ratioP2;P2;SDS_P1;SDS_P2;PMS_P1;PMS_P2;Temp;Humidity;BMP_temperature;BMP_pressure;BME280_temperature;BME280_humidity;BME280_pressure;Samples;Min_cycle;Max_cycle;Signal;HPM_P1;HPM_P2
2023/03/08 00:00:36;;;;;;;21.23;13.40;;;4.60;99.90;;;;;;4879821;29;20196;-77
2023/03/08 00:03:02;;;;;;;20.47;13.90;;;4.60;99.90;;;;;;4883248;29;20191;-78
2023/03/08 00:05:27;;;;;;;25.77;13.20;;;4.60;99.90;;;;;;4889227;29;20199;-77
2023/03/08 00:07:54;;;;;;;24.33;15.33;;;4.60;99.90;;;;;;4894947;29;20214;-78
2023/03/08 00:10:21;;;;;;;17.87;13.60;;;4.60;99.90;;;;;;4893878;29;20289;-76
2023/03/08 00:12:46;;;;;;;22.57;15.40;;;4.60;99.90;;;;;;4888365;29;20436;-77
2023/03/08 00:15:12;;;;;;;19.53;13.40;;;4.60;99.90;;;;;;4882147;29;20492;-78
2023/03/08 00:17:38;;;;;;;20.80;13.87;;;4.50;99.90;;;;;;4879873;29;20258;-78
2023/03/08 00:20:06;;;;;;;21.77;13.80;;;4.60;99.90;;;;;;4885035;29;20209;-78
2023/03/08 00:22:39;;;;;;;22.03;14.50;;;4.50;99.90;;;;;;4890715;29;20471;-78
2023/03/08 00:25:07;;;;;;;21.37;13.97;;;4.60;99.90;;;;;;4895428;29;20460;-78
2023/03/08 00:27:34;;;;;;;23.20;14.27;;;4.60;99.90;;;;;;4891434;29;20502;-78
2023/03/08 00:30:00;;;;;;;22.70;13.40;;;4.60;99.90;;;;;;4885753;29;20444;-76
2023/03/08 00:32:26;;;;;;;19.70;13.40;;;4.50;99.90;;;;;;4880510;29;20487;-80
2023/03/08 00:34:52;;;;;;;18.63;13.50;;;4.60;99.90;;;;;;4883896;29;20591;-78
2023/03/08 00:37:18;;;;;;;20.70;13.90;;;4.60;99.90;;;;;;4890625;29;20448;-78
2023/03/08 00:39:43;;;;;;;24.23;13.93;;;4.50;99.90;;;;;;4896263;29;20536;-78
2023/03/08 00:42:09;;;;;;;22.07;13.20;;;4.50;99.90;;;;;;4899118;29;20190;-78
2023/03/08 00:44:34;;;;;;;20.60;12.63;;;4.50;99.90;;;;;;4893677;29;20196;-78
2023/03/08 00:47:00;;;;;;;23.50;14.83;;;4.50;99.90;;;;;;4888046;29;20188;-77
2023/03/08 00:49:25;;;;;;;20.97;14.30;;;4.50;99.90;;;;;;4889292;29;20272;-77
2023/03/08 00:51:51;;;;;;;19.43;12.93;;;4.50;99.90;;;;;;4896139;29;20300;-78
2023/03/08 00:54:16;;;;;;;23.90;14.77;;;4.50;99.90;;;;;;4889915;29;20265;-79
2023/03/08 00:56:42;;;;;;;17.40;13.93;;;4.40;99.90;;;;;;4884829;29;20203;-79
2023/03/08 00:59:08;;;;;;;21.00;14.20;;;4.40;99.90;;;;;;4883757;29;20199;-80
2023/03/08 01:01:33;;;;;;;22.67;13.67;;;4.40;99.90;;;;;;4889693;29;20191;-79
2023/03/08 01:04:00;;;;;;;18.20;12.67;;;4.40;99.90;;;;;;4895158;29;20674;-80
2023/03/08 01:06:26;;;;;;;20.37;12.33;;;4.50;99.90;;;;;;4898945;29;20447;-80
2023/03/08 01:08:51;;;;;;;23.03;13.30;;;4.60;99.90;;;;;;4894333;29;20437;-79
2023/03/08 01:11:22;;;;;;;21.03;12.50;;;4.60;99.90;;;;;;4888539;29;20198;-79
2023/03/08 01:13:49;;;;;;;19.60;13.70;;;4.50;99.90;;;;;;4883452;29;20189;-79
2023/03/08 01:16:21;;;;;;;20.80;13.80;;;4.40;99.90;;;;;;4885208;29;20544;-79
2023/03/08 01:18:47;;;;;;;22.03;15.00;;;4.40;99.90;;;;;;4892029;29;20448;-77
2023/03/08 01:21:12;;;;;;;23.70;14.80;;;4.40;99.90;;;;;;4896948;29;20452;-80
2023/03/08 01:23:38;;;;;;;19.67;13.83;;;4.50;99.90;;;;;;4897871;29;20448;-80
2023/03/08 01:26:07;;;;;;;32.10;13.67;;;4.50;99.90;;;;;;4892842;29;20523;-81
2023/03/08 01:28:33;;;;;;;20.80;13.77;;;4.40;99.90;;;;;;4887562;29;20449;-80
2023/03/08 01:31:16;;;;;;;25.77;14.50;;;4.40;99.90;;;;;;4889247;29;20515;-81
2023/03/08 01:33:43;;;;;;;18.80;13.13;;;4.30;99.90;;;;;;4893728;29;20504;-77
2023/03/08 01:36:11;;;;;;;20.53;12.57;;;4.30;99.90;;;;;;4888414;29;20847;-76
2023/03/08 01:38:37;;;;;;;22.47;14.10;;;4.30;99.90;;;;;;4883192;29;20468;-75
2023/03/08 01:41:05;;;;;;;22.20;14.70;;;4.30;99.90;;;;;;4886493;29;20473;-76
2023/03/08 01:43:34;;;;;;;25.63;17.67;;;4.30;99.90;;;;;;4891927;29;20436;-80
2023/03/08 01:46:09;;;;;;;20.17;13.57;;;4.40;99.90;;;;;;4897226;29;20789;-80
2023/03/08 01:48:44;;;;;;;22.03;14.43;;;4.30;99.90;;;;;;4880186;29;20443;-77
2023/03/08 01:51:13;;;;;;;21.87;14.20;;;4.30;99.90;;;;;;4890799;29;20512;-77
2023/03/08 01:53:41;;;;;;;23.07;15.57;;;4.40;99.90;;;;;;4885589;29;20439;-79
2023/03/08 01:56:10;;;;;;;25.30;15.43;;;4.30;99.90;;;;;;4883208;29;20456;-79
2023/03/08 01:58:36;;;;;;;32.00;16.07;;;4.20;99.90;;;;;;4892560;29;20452;-79
2023/03/08 02:01:01;;;;;;;23.50;15.13;;;4.30;99.90;;;;;;4888611;29;20599;-79
2023/03/08 02:03:27;;;;;;;23.67;15.73;;;4.20;99.90;;;;;;4882769;29;20436;-79
2023/03/08 02:05:52;;;;;;;24.23;14.50;;;4.30;99.90;;;;;;4887096;29;20184;-80
2023/03/08 02:08:18;;;;;;;24.50;14.97;;;4.30;99.90;;;;;;4892376;29;20190;-79
2023/03/08 02:10:44;;;;;;;23.07;15.67;;;4.30;99.90;;;;;;4898571;29;20192;-79
2023/03/08 02:13:11;;;;;;;31.67;14.80;;;4.30;99.90;;;;;;4896744;29;20199;-79
2023/03/08 02:15:36;;;;;;;22.70;15.13;;;4.30;99.90;;;;;;4892804;29;20310;-81
2023/03/08 02:18:02;;;;;;;25.93;15.87;;;4.30;99.90;;;;;;4886146;29;20516;-82
2023/03/08 02:20:28;;;;;;;22.13;15.30;;;4.30;99.90;;;;;;4885244;29;20196;-83
2023/03/08 02:22:53;;;;;;;27.40;15.33;;;4.30;99.90;;;;;;4894424;29;20187;-81
2023/03/08 02:25:21;;;;;;;23.87;17.23;;;4.20;99.90;;;;;;4896595;29;20183;-80
2023/03/08 02:27:49;;;;;;;25.27;15.90;;;4.20;99.90;;;;;;4887884;29;20680;-78
2023/03/08 02:30:16;;;;;;;22.47;14.77;;;4.30;99.90;;;;;;4895489;29;20520;-78
2023/03/08 02:32:42;;;;;;;22.47;16.20;;;4.30;99.90;;;;;;4887310;29;20561;-81
2023/03/08 02:35:08;;;;;;;21.97;14.17;;;4.30;99.90;;;;;;4883966;29;20495;-81
2023/03/08 02:37:34;;;;;;;21.10;15.63;;;4.30;99.90;;;;;;4883846;29;20240;-81
2023/03/08 02:40:00;;;;;;;28.27;15.37;;;4.30;99.90;;;;;;4889305;29;20847;-81
2023/03/08 02:42:25;;;;;;;24.77;15.63;;;4.30;99.90;;;;;;4894369;29;20196;-82
2023/03/08 02:44:51;;;;;;;22.40;15.23;;;4.30;99.90;;;;;;4897640;29;21470;-83
2023/03/08 02:47:16;;;;;;;27.13;17.20;;;4.20;99.90;;;;;;4896529;29;20187;-85
2023/03/08 02:49:42;;;;;;;24.37;16.27;;;4.30;99.90;;;;;;4897642;29;20184;-84
2023/03/08 02:52:08;;;;;;;23.83;16.37;;;4.30;99.90;;;;;;4892876;29;20668;-83
2023/03/08 02:54:33;;;;;;;32.87;17.10;;;4.30;99.90;;;;;;4893203;29;20218;-85
2023/03/08 02:56:59;;;;;;;23.50;14.50;;;4.30;99.90;;;;;;4895014;29;20544;-88
2023/03/08 02:59:25;;;;;;;26.53;16.17;;;4.30;99.90;;;;;;4895528;29;20551;-86
2023/03/08 03:01:51;;;;;;;29.80;16.70;;;4.30;99.90;;;;;;4893484;29;20736;-83
2023/03/08 03:04:16;;;;;;;21.97;15.37;;;4.30;99.90;;;;;;4897331;29;20476;-82
2023/03/08 03:06:42;;;;;;;23.97;15.63;;;4.30;99.90;;;;;;4896170;29;20651;-83
2023/03/08 03:09:09;;;;;;;20.40;14.73;;;4.30;99.90;;;;;;4895233;29;20180;-84
2023/03/08 03:11:34;;;;;;;25.33;16.10;;;4.20;99.90;;;;;;4896167;29;20212;-83
2023/03/08 03:14:00;;;;;;;24.27;14.33;;;4.20;99.90;;;;;;4897451;29;20475;-83
2023/03/08 03:16:27;;;;;;;20.93;13.80;;;4.20;99.90;;;;;;4894022;29;20191;-83
2023/03/08 03:18:54;;;;;;;23.00;15.83;;;4.30;99.90;;;;;;4895088;29;20271;-84
2023/03/08 03:21:20;;;;;;;25.53;14.80;;;4.30;99.90;;;;;;4898250;29;20532;-84
2023/03/08 05:31:48;;;;;;;22.73;14.03;;;4.20;99.90;;;;;;5305359;23;20519;-79
2023/03/08 05:34:14;;;;;;;17.70;12.70;;;4.20;99.90;;;;;;4904993;29;20480;-72
2023/03/08 05:36:41;;;;;;;22.37;14.30;;;4.20;99.90;;;;;;4902138;29;20499;-86
2023/03/08 05:39:07;;;;;;;24.23;13.00;;;4.20;99.90;;;;;;4905597;29;20646;-75
2023/03/08 05:41:32;;;;;;;25.83;12.70;;;4.30;99.90;;;;;;4910918;29;20529;-80
2023/03/08 05:44:00;;;;;;;34.43;14.00;;;4.30;99.90;;;;;;4916372;29;20195;-74
2023/03/08 05:46:26;;;;;;;22.60;13.07;;;4.20;99.90;;;;;;4913686;29;20196;-78
2023/03/08 05:48:51;;;;;;;24.03;13.17;;;4.20;99.90;;;;;;4908569;29;20443;-80
2023/03/08 05:51:18;;;;;;;24.50;15.17;;;4.20;99.90;;;;;;4905538;29;20756;-73
2023/03/08 05:53:44;;;;;;;21.40;14.43;;;4.30;99.90;;;;;;4903305;29;20195;-77
2023/03/08 05:56:16;;;;;;;20.70;12.37;;;4.30;99.90;;;;;;4898825;29;20562;-81
2023/03/08 05:58:42;;;;;;;25.30;12.27;;;4.40;99.90;;;;;;4898985;29;20451;-79
2023/03/08 06:01:20;;;;;;;17.10;11.47;;;4.40;99.90;;;;;;4897231;29;20466;-81
2023/03/08 06:03:47;;;;;;;22.60;10.97;;;4.40;99.90;;;;;;4900494;29;20459;-80
2023/03/08 06:06:13;;;;;;;17.73;10.67;;;4.40;99.90;;;;;;4898945;29;20484;-80
2023/03/08 06:08:40;;;;;;;18.67;8.47;;;4.40;99.90;;;;;;4902057;29;20441;-81
2023/03/08 06:11:06;;;;;;;20.17;11.20;;;4.40;99.90;;;;;;4908306;29;20871;-80
2023/03/08 06:13:32;;;;;;;15.70;10.20;;;4.30;99.90;;;;;;4916097;29;20432;-82
2023/03/08 06:15:59;;;;;;;16.40;10.27;;;4.30;99.90;;;;;;4912820;29;20228;-81
2023/03/08 06:18:26;;;;;;;20.17;8.93;;;4.30;99.90;;;;;;4905987;29;20817;-81
2023/03/08 06:21:13;;;;;;;16.13;9.17;;;4.30;99.90;;;;;;4911702;29;20498;-81
2023/03/08 06:23:39;;;;;;;15.17;9.77;;;4.30;99.90;;;;;;4913477;29;20998;-83
2023/03/08 06:26:06;;;;;;;15.80;8.67;;;4.20;99.90;;;;;;4906171;29;20526;-83
2023/03/08 06:28:32;;;;;;;14.60;8.70;;;4.10;99.90;;;;;;4910722;29;20432;-80
2023/03/08 06:30:58;;;;;;;12.97;7.53;;;4.10;99.90;;;;;;4911332;29;21045;-84
2023/03/08 06:33:27;;;;;;;23.03;8.90;;;4.00;99.90;;;;;;4906248;29;20279;-82
2023/03/08 06:36:02;;;;;;;14.33;8.53;;;4.00;99.90;;;;;;4907361;29;20358;-82
2023/03/08 06:38:29;;;;;;;18.20;9.17;;;4.00;99.90;;;;;;4911147;29;20512;-84
2023/03/08 06:40:54;;;;;;;16.90;8.90;;;4.00;99.90;;;;;;4902867;29;20448;-83
2023/03/08 06:43:20;;;;;;;12.67;7.90;;;4.00;99.90;;;;;;4909730;29;20438;-85
2023/03/08 06:45:46;;;;;;;13.20;8.37;;;4.00;99.90;;;;;;4913304;29;20199;-86
2023/03/08 06:48:12;;;;;;;13.70;7.70;;;4.10;99.90;;;;;;4913809;29;20446;-84
2023/03/08 06:50:37;;;;;;;13.10;8.03;;;4.10;99.90;;;;;;4907100;29;20192;-85
2023/03/08 06:53:03;;;;;;;14.60;8.40;;;4.00;99.90;;;;;;4906291;29;20442;-82
2023/03/08 06:55:28;;;;;;;12.93;7.47;;;4.00;99.90;;;;;;4909016;29;20226;-81
2023/03/08 06:57:54;;;;;;;14.97;7.50;;;4.20;99.90;;;;;;4900397;29;20698;-81
2023/03/08 07:00:20;;;;;;;9.77;5.70;;;4.00;99.90;;;;;;4911051;29;20191;-85
2023/03/08 07:02:47;;;;;;;8.13;6.03;;;3.90;99.90;;;;;;4910116;29;20188;-85
2023/03/08 07:05:14;;;;;;;8.60;5.07;;;3.90;99.90;;;;;;4909832;29;20815;-85
2023/03/08 07:07:43;;;;;;;7.90;4.60;;;4.00;99.90;;;;;;4904967;29;20952;-84
2023/03/08 07:10:10;;;;;;;11.20;4.90;;;3.80;99.90;;;;;;4906964;29;20535;-85
2023/03/08 07:12:39;;;;;;;4.13;3.03;;;3.80;99.90;;;;;;4907266;29;20943;-81
2023/03/08 07:15:08;;;;;;;8.50;2.70;;;3.80;99.90;;;;;;4912428;29;20481;-80
2023/03/08 07:17:35;;;;;;;5.70;2.97;;;3.80;99.90;;;;;;4912922;29;21017;-81
2023/03/08 07:20:04;;;;;;;4.90;3.10;;;3.70;99.90;;;;;;4912648;29;20843;-81
2023/03/08 07:22:30;;;;;;;6.70;3.10;;;3.70;99.90;;;;;;4905738;29;20477;-78
2023/03/08 07:24:56;;;;;;;8.97;3.30;;;3.60;99.90;;;;;;4897664;29;20950;-79
2023/03/08 07:27:21;;;;;;;3.77;2.53;;;3.60;99.90;;;;;;4910702;29;20442;-79
2023/03/08 07:29:47;;;;;;;3.70;2.50;;;3.60;99.90;;;;;;4903971;29;20227;-79
2023/03/08 07:32:12;;;;;;;5.77;3.30;;;3.50;99.90;;;;;;4903532;29;20242;-79
2023/03/08 07:34:38;;;;;;;3.87;2.93;;;3.30;99.90;;;;;;4909782;29;20231;-79
2023/03/08 07:37:03;;;;;;;7.20;3.60;;;3.40;99.90;;;;;;4897663;29;20183;-82
2023/03/08 07:39:29;;;;;;;4.53;2.87;;;3.40;99.90;;;;;;4908170;29;20180;-83
2023/03/08 07:41:54;;;;;;;2.80;2.60;;;3.40;99.90;;;;;;4905569;29;20195;-81
2023/03/08 07:44:20;;;;;;;3.80;2.63;;;3.40;99.90;;;;;;4909800;29;20198;-80
2023/03/08 07:46:46;;;;;;;4.77;2.47;;;3.30;99.90;;;;;;4902775;29;20299;-81
2023/03/08 07:49:11;;;;;;;4.07;2.57;;;3.30;99.90;;;;;;4913143;29;20187;-81
2023/03/08 07:51:37;;;;;;;4.53;2.30;;;3.30;99.90;;;;;;4914365;29;20548;-80
2023/03/08 07:54:03;;;;;;;3.10;2.40;;;3.30;99.90;;;;;;4913686;29;20190;-80
2023/03/08 07:56:28;;;;;;;4.43;3.07;;;3.30;99.90;;;;;;4908667;29;20226;-84
2023/03/08 07:58:57;;;;;;;3.40;2.50;;;3.20;99.90;;;;;;4914790;29;20184;-80
2023/03/08 08:01:23;;;;;;;3.93;2.53;;;3.20;99.90;;;;;;4913338;29;20234;-79
2023/03/08 08:03:49;;;;;;;5.20;2.57;;;3.10;99.90;;;;;;4909990;29;20438;-81
2023/03/08 08:06:15;;;;;;;2.20;2.00;;;3.10;99.90;;;;;;4914807;29;20185;-81
2023/03/08 08:08:41;;;;;;;3.23;2.43;;;3.00;99.90;;;;;;4913855;29;20436;-80
2023/03/08 08:11:14;;;;;;;3.23;2.07;;;3.10;99.90;;;;;;4912786;29;20518;-79
2023/03/08 08:13:40;;;;;;;2.63;2.00;;;3.10;99.90;;;;;;4912292;29;20181;-79
2023/03/08 08:16:06;;;;;;;2.60;1.97;;;3.10;99.90;;;;;;4912956;29;20921;-79
2023/03/08 08:18:33;;;;;;;2.67;2.03;;;3.10;99.90;;;;;;4912483;29;20187;-78
2023/03/08 08:21:07;;;;;;;3.70;1.87;;;3.10;99.90;;;;;;4915652;29;20444;-78
2023/03/08 08:23:33;;;;;;;2.53;2.33;;;3.10;99.90;;;;;;4916531;29;20447;-78
2023/03/08 08:25:59;;;;;;;6.80;2.07;;;3.10;99.90;;;;;;4914003;29;20429;-78
2023/03/08 08:28:26;;;;;;;3.63;2.33;;;3.10;99.90;;;;;;4909804;29;20799;-78
2023/03/08 08:30:59;;;;;;;3.17;2.23;;;3.10;99.90;;;;;;4911218;29;20214;-77
2023/03/08 08:33:26;;;;;;;3.50;2.30;;;3.10;99.90;;;;;;4915236;29;20432;-85
2023/03/08 08:35:52;;;;;;;3.20;2.70;;;3.20;99.90;;;;;;4907876;29;20551;-84
2023/03/08 08:38:17;;;;;;;2.57;1.80;;;3.30;99.90;;;;;;4910420;29;20434;-90
2023/03/08 08:40:43;;;;;;;5.70;2.33;;;3.20;99.90;;;;;;4915591;29;20278;-89
2023/03/08 08:43:09;;;;;;;2.90;2.03;;;3.30;99.90;;;;;;4915131;29;20589;-87
2023/03/08 08:45:34;;;;;;;5.93;2.70;;;3.30;99.90;;;;;;4908864;29;20719;-92
2023/03/08 08:48:00;;;;;;;4.73;2.50;;;3.30;99.90;;;;;;4910342;29;20184;-86
2023/03/08 08:50:25;;;;;;;6.23;2.10;;;3.30;99.90;;;;;;4908043;29;20324;-84
2023/03/08 08:52:51;;;;;;;2.60;1.90;;;3.30;99.90;;;;;;4902322;29;20287;-84
2023/03/08 08:55:16;;;;;;;3.57;2.30;;;3.40;99.90;;;;;;4907525;29;20217;-85
2023/03/08 08:57:42;;;;;;;3.80;2.10;;;3.40;99.90;;;;;;4914989;29;20186;-80
2023/03/08 09:00:11;;;;;;;4.47;1.90;;;3.40;99.90;;;;;;4910068;29;20226;-86
2023/03/08 09:02:36;;;;;;;1.87;1.70;;;3.50;99.90;;;;;;4901032;29;20669;-86
2023/03/08 09:05:02;;;;;;;2.40;1.73;;;3.40;99.90;;;;;;4917219;29;20438;-90
2023/03/08 09:07:27;;;;;;;4.33;1.77;;;3.30;99.90;;;;;;4913280;29;20192;-86
2023/03/08 09:09:54;;;;;;;2.72;1.70;;;3.30;99.90;;;;;;4905444;29;20822;-75
2023/03/08 09:12:20;;;;;;;5.70;3.03;;;3.40;99.90;;;;;;4908006;29;20451;-76
2023/03/08 09:14:45;;;;;;;2.37;1.90;;;3.50;99.90;;;;;;4907471;29;20555;-74
2023/03/08 09:17:11;;;;;;;2.23;2.03;;;3.70;99.90;;;;;;4910938;29;20461;-76
2023/03/08 09:19:37;;;;;;;2.80;1.93;;;3.70;99.90;;;;;;4912578;29;20171;-75
2023/03/08 09:22:03;;;;;;;1.90;1.53;;;3.80;99.90;;;;;;4916345;29;20191;-75
2023/03/08 09:24:28;;;;;;;1.80;1.60;;;3.70;99.90;;;;;;4908460;29;20602;-74
2023/03/08 09:26:54;;;;;;;4.13;1.90;;;3.80;99.90;;;;;;4905771;29;20466;-75
2023/03/08 09:29:19;;;;;;;2.10;1.90;;;3.80;99.90;;;;;;4909254;29;20198;-76
2023/03/08 09:31:45;;;;;;;1.80;1.70;;;3.70;99.90;;;;;;4905894;29;20867;-74
2023/03/08 09:34:13;;;;;;;3.97;2.10;;;3.70;99.90;;;;;;4910354;29;20689;-75
2023/03/08 09:36:40;;;;;;;1.60;1.40;;;3.70;99.90;;;;;;4908724;29;20719;-75
2023/03/08 09:39:07;;;;;;;4.10;2.03;;;3.70;99.90;;;;;;4912658;29;20443;-75
2023/03/08 09:41:42;;;;;;;1.90;1.80;;;3.70;99.90;;;;;;4887695;29;20938;-75
2023/03/08 09:44:29;;;;;;;1.80;1.70;;;3.50;99.90;;;;;;4910673;29;20478;-76
2023/03/08 09:46:58;;;;;;;1.70;1.50;;;3.60;99.90;;;;;;4916303;29;20739;-75
2023/03/08 09:49:29;;;;;;;2.37;2.13;;;3.70;99.90;;;;;;4904823;29;20745;-75
2023/03/08 09:52:15;;;;;;;1.70;1.60;;;3.60;99.90;;;;;;4910520;29;21022;-75
2023/03/08 09:54:41;;;;;;;3.63;1.83;;;3.60;99.90;;;;;;4909496;29;20628;-75
2023/03/08 09:57:15;;;;;;;5.27;2.10;;;3.70;99.90;;;;;;4909403;29;20457;-76
2023/03/08 09:59:49;;;;;;;3.80;1.43;;;3.60;99.90;;;;;;4910463;29;20435;-76
2023/03/08 10:02:33;;;;;;;2.03;1.70;;;3.70;99.90;;;;;;4912714;29;21002;-77
2023/03/08 10:05:01;;;;;;;2.77;1.83;;;3.70;99.90;;;;;;4913028;29;20586;-76
2023/03/08 10:08:01;;;;;;;2.50;2.30;;;3.70;99.90;;;;;;4909246;29;20432;-74
2023/03/08 10:11:06;;;;;;;2.17;1.83;;;3.70;99.90;;;;;;4915050;29;20886;-75
2023/03/08 10:13:47;;;;;;;2.63;2.37;;;3.80;99.90;;;;;;4913343;29;20808;-75
2023/03/08 10:16:21;;;;;;;2.97;2.07;;;3.80;99.90;;;;;;4911207;29;20908;-75
2023/03/08 10:19:03;;;;;;;2.00;1.90;;;3.90;99.90;;;;;;4910107;29;20938;-75
2023/03/08 10:21:31;;;;;;;3.10;2.03;;;3.90;99.90;;;;;;4903548;29;20466;-76
2023/03/08 10:24:06;;;;;;;2.83;2.40;;;3.90;99.90;;;;;;4910799;29;20429;-75
2023/03/08 10:26:32;;;;;;;2.57;2.13;;;3.90;99.90;;;;;;4910074;29;20448;-75
2023/03/08 10:28:58;;;;;;;2.83;1.80;;;4.00;99.90;;;;;;4915324;29;20511;-75
2023/03/08 10:31:27;;;;;;;2.23;1.90;;;4.00;99.90;;;;;;4909192;29;20504;-75
2023/03/08 10:34:17;;;;;;;5.33;2.10;;;4.00;99.90;;;;;;4906537;29;20183;-75
2023/03/08 10:36:56;;;;;;;4.23;2.50;;;4.00;99.90;;;;;;4909782;29;20459;-75
2023/03/08 10:39:22;;;;;;;3.03;2.27;;;3.90;99.90;;;;;;4911471;29;20439;-75
2023/03/08 10:41:54;;;;;;;2.10;1.90;;;3.90;99.90;;;;;;4914188;29;20434;-74
2023/03/08 10:44:32;;;;;;;2.30;2.00;;;3.90;99.90;;;;;;4914757;29;20191;-75
2023/03/08 10:46:58;;;;;;;1.80;1.70;;;4.00;99.90;;;;;;4892569;29;20444;-76
2023/03/08 10:49:24;;;;;;;2.47;1.73;;;4.00;99.90;;;;;;4908477;29;20960;-77
2023/03/08 10:51:58;;;;;;;2.23;2.03;;;4.00;99.90;;;;;;4907048;29;20191;-78
2023/03/08 10:54:24;;;;;;;1.77;1.67;;;4.10;99.90;;;;;;4904295;29;20467;-77
2023/03/08 10:56:53;;;;;;;2.03;1.20;;;4.00;99.90;;;;;;4906807;29;20453;-77
2023/03/08 10:59:48;;;;;;;1.83;1.60;;;4.00;99.90;;;;;;4907368;29;20420;-77
2023/03/08 11:02:13;;;;;;;2.27;1.50;;;4.00;99.90;;;;;;4908224;29;20450;-77
2023/03/08 11:04:51;;;;;;;3.70;1.67;;;3.90;99.90;;;;;;4902191;29;20970;-77
2023/03/08 11:07:26;;;;;;;2.20;1.70;;;3.90;99.90;;;;;;4906825;29;20188;-77
2023/03/08 11:10:02;;;;;;;2.50;1.60;;;3.80;99.90;;;;;;4904273;29;20445;-77
2023/03/08 11:12:28;;;;;;;3.20;2.27;;;3.80;99.90;;;;;;4904680;29;20464;-78
2023/03/08 11:14:53;;;;;;;2.00;1.90;;;3.70;99.90;;;;;;4909581;29;20508;-77
2023/03/08 11:17:30;;;;;;;6.23;1.90;;;3.80;99.90;;;;;;4910658;29;20247;-77
2023/03/08 11:20:09;;;;;;;2.40;2.20;;;3.70;99.90;;;;;;4903825;29;20283;-77
2023/03/08 11:23:13;;;;;;;2.87;2.67;;;3.70;99.90;;;;;;4908116;29;20473;-77
2023/03/08 11:25:45;;;;;;;1.80;1.70;;;3.70;99.90;;;;;;4909257;29;20459;-81
2023/03/08 11:28:18;;;;;;;2.40;2.20;;;3.80;99.90;;;;;;4904365;29;20429;-80
2023/03/08 11:30:56;;;;;;;2.57;1.90;;;3.80;99.90;;;;;;4906662;29;20913;-77
2023/03/08 11:33:58;;;;;;;2.10;1.90;;;3.90;99.90;;;;;;4909467;29;20470;-77
2023/03/08 11:36:45;;;;;;;2.23;2.03;;;3.90;99.90;;;;;;4910095;29;20533;-77
2023/03/08 11:39:36;;;;;;;2.67;2.30;;;4.00;99.90;;;;;;4908022;29;20429;-77
2023/03/08 11:42:20;;;;;;;2.10;1.90;;;3.90;99.90;;;;;;4908928;29;20443;-78
2023/03/08 11:45:06;;;;;;;3.53;2.55;;;3.90;99.90;;;;;;4904157;29;20436;-81
2023/03/08 11:48:09;;;;;;;3.50;2.83;;;4.10;99.90;;;;;;4909707;29;20530;-78
2023/03/08 11:50:40;;;;;;;2.87;2.67;;;4.10;99.90;;;;;;4910867;29;20441;-77
2023/03/08 11:53:17;;;;;;;3.20;2.60;;;4.10;99.90;;;;;;4904980;29;20432;-76
2023/03/08 11:56:07;;;;;;;3.07;2.80;;;4.20;99.90;;;;;;4893624;29;20487;-78
2023/03/08 11:58:47;;;;;;;2.57;2.03;;;4.10;99.90;;;;;;4912872;29;20539;-80
2023/03/08 12:01:28;;;;;;;3.07;2.40;;;4.10;99.90;;;;;;4908562;29;20447;-80
2023/03/08 12:03:58;;;;;;;3.03;2.27;;;4.10;99.90;;;;;;4914210;29;20891;-80
2023/03/08 12:06:48;;;;;;;4.60;2.57;;;4.10;99.90;;;;;;4914662;29;20458;-79
2023/03/08 12:09:21;;;;;;;4.30;2.70;;;4.10;99.90;;;;;;4909982;29;20441;-80
2023/03/08 12:11:52;;;;;;;2.53;2.33;;;4.10;99.90;;;;;;4908603;29;20798;-78
2023/03/08 12:14:20;;;;;;;3.53;3.23;;;4.00;99.90;;;;;;4914041;29;20432;-78
2023/03/08 12:17:00;;;;;;;2.77;2.37;;;4.00;99.90;;;;;;4905434;29;20688;-83
2023/03/08 12:19:42;;;;;;;3.23;2.10;;;4.00;99.90;;;;;;4911507;29;20518;-83
2023/03/08 12:22:19;;;;;;;4.17;3.17;;;4.10;99.90;;;;;;4912691;29;20436;-79
2023/03/08 12:25:20;;;;;;;2.77;2.57;;;4.00;99.90;;;;;;4910532;29;20478;-82
2023/03/08 12:28:04;;;;;;;4.23;2.37;;;4.00;99.90;;;;;;4815420;29;20850;-82
2023/03/08 12:30:46;;;;;;;3.50;3.20;;;4.20;99.90;;;;;;4905816;29;20530;-81
2023/03/08 12:33:14;;;;;;;3.20;2.50;;;4.10;99.90;;;;;;4908853;29;20441;-79
2023/03/08 12:35:55;;;;;;;4.90;3.97;;;4.10;99.90;;;;;;4912025;29;20547;-81
2023/03/08 12:38:20;;;;;;;2.83;2.63;;;4.10;99.90;;;;;;4897268;29;20608;-82
2023/03/08 12:40:48;;;;;;;3.37;2.97;;;4.00;99.90;;;;;;4914433;29;20536;-77
2023/03/08 12:43:28;;;;;;;3.27;2.93;;;4.00;99.90;;;;;;4908247;29;20174;-76
2023/03/08 12:46:07;;;;;;;3.90;2.87;;;4.10;99.90;;;;;;4911612;29;20497;-76
2023/03/08 12:48:38;;;;;;;3.80;3.40;;;4.20;99.90;;;;;;4910332;29;20435;-75
2023/03/08 12:51:16;;;;;;;4.13;3.13;;;4.20;99.90;;;;;;4906046;29;20839;-77
2023/03/08 12:53:50;;;;;;;3.07;2.70;;;4.20;99.90;;;;;;4903981;29;20435;-78
2023/03/08 12:56:20;;;;;;;3.60;3.00;;;4.20;99.90;;;;;;4909507;29;21022;-78
2023/03/08 12:58:49;;;;;;;3.53;2.97;;;4.30;99.90;;;;;;4906651;29;20431;-78
2023/03/08 13:02:02;;;;;;;4.07;3.67;;;4.30;99.90;;;;;;4905383;29;20543;-78
2023/03/08 13:04:38;;;;;;;3.70;3.30;;;4.30;99.90;;;;;;4882857;29;20541;-78
2023/03/08 13:08:01;;;;;;;4.43;3.50;;;4.40;99.90;;;;;;4898748;29;20449;-78
2023/03/08 13:10:36;;;;;;;3.37;3.07;;;4.40;99.90;;;;;;4818145;29;20443;-78
2023/03/08 13:13:10;;;;;;;4.73;4.10;;;4.30;99.90;;;;;;4819181;29;20836;-76
2023/03/08 13:15:37;;;;;;;5.77;3.60;;;4.20;99.90;;;;;;4870457;29;20922;-74
2023/03/08 13:18:14;;;;;;;3.40;3.10;;;4.20;99.90;;;;;;4907881;29;20946;-75
2023/03/08 13:20:40;;;;;;;4.20;3.30;;;4.20;99.90;;;;;;4905919;29;20529;-74
2023/03/08 13:23:14;;;;;;;4.33;3.70;;;4.10;99.90;;;;;;4903057;29;20520;-78
2023/03/08 13:26:05;;;;;;;4.23;3.50;;;4.20;99.90;;;;;;4921588;29;20179;-89
2023/03/08 13:28:37;;;;;;;6.00;3.63;;;4.30;99.90;;;;;;4917884;29;20469;-78
2023/03/08 13:31:18;;;;;;;5.03;4.03;;;4.20;99.90;;;;;;4923804;29;20514;-84
2023/03/08 13:33:48;;;;;;;4.07;3.60;;;4.20;99.90;;;;;;4909665;29;20446;-75
2023/03/08 13:36:21;;;;;;;4.27;3.93;;;4.30;99.90;;;;;;4907694;29;20484;-78
2023/03/08 13:39:02;;;;;;;4.63;4.20;;;4.30;99.90;;;;;;4904653;29;20433;-85
2023/03/08 13:41:41;;;;;;;7.80;3.47;;;4.20;99.90;;;;;;4904887;29;20534;-77
2023/03/08 13:44:16;;;;;;;8.10;4.93;;;5.30;99.90;;;;;;4909711;29;20442;-77
2023/03/08 13:46:43;;;;;;;4.60;4.20;;;5.30;99.90;;;;;;4915702;29;20808;-74
